Time;durP1;ratioP1;P1;durP2;ratioP2;P2;SDS_P1;SDS_P2;PMS_P1;PMS_P2;Temp;Humidity;BMP_temperature;BMP_pressure;BME280_temperature;BME280_humidity;BME280_pressure;Samples;Min_cycle;Max_cycle;Signal;HPM_P1;HPM_P2
2021/08/17 00:00:09;;;;;;;7.40;2.95;;;;;;;19.56;100.00;99423.63;5115895;28;20040;-70
2021/08/17 00:02:38;;;;;;;8.38;3.10;;;;;;;19.55;99.96;99432.75;5115728;28;20035;-72
2021/08/17 00:05:09;;;;;;;6.10;3.10;;;;;;;19.53;100.00;99432.06;5116051;28;20480;-72
2021/08/17 00:07:37;;;;;;;7.30;3.33;;;;;;;19.51;98.99;99426.00;5115655;28;20480;-72
2021/08/17 00:10:07;;;;;;;6.72;3.05;;;;;;;19.54;95.98;99426.47;5115963;28;20499;-73
2021/08/17 00:12:35;;;;;;;5.70;3.28;;;;;;;19.57;94.78;99425.31;5115480;28;20046;-73
2021/08/17 00:15:05;;;;;;;8.00;3.70;;;;;;;19.58;95.19;99427.00;5115843;28;20047;-71
2021/08/17 00:17:33;;;;;;;7.55;3.30;;;;;;;19.51;93.65;99420.59;5115441;28;20074;-73
2021/08/17 00:20:05;;;;;;;8.60;3.65;;;;;;;19.49;93.94;99431.53;5115667;28;20050;-72
2021/08/17 00:22:37;;;;;;;9.10;3.35;;;;;;;19.45;97.51;99433.75;5115404;28;20043;-72
2021/08/17 00:25:07;;;;;;;6.68;3.38;;;;;;;19.51;94.83;99434.09;5115597;28;20513;-72
2021/08/17 00:27:35;;;;;;;8.35;3.90;;;;;;;19.43;95.69;99441.19;5115391;28;20047;-72
2021/08/17 00:30:04;;;;;;;7.45;3.10;;;;;;;19.40;94.21;99452.34;5115344;28;20508;-72
2021/08/17 00:32:33;;;;;;;7.28;3.38;;;;;;;19.37;93.61;99449.97;5096963;28;20043;-73
2021/08/17 00:35:01;;;;;;;7.55;3.60;;;;;;;19.45;92.56;99462.66;5115380;28;20042;-74
2021/08/17 00:37:31;;;;;;;5.50;3.13;;;;;;;19.36;95.15;99461.81;5114836;28;20044;-74
2021/08/17 00:40:00;;;;;;;6.82;3.85;;;;;;;19.28;93.32;99453.69;5115417;28;20043;-73
2021/08/17 00:42:34;;;;;;;6.25;3.75;;;;;;;19.28;92.60;99464.50;5115021;28;20057;-74
2021/08/17 00:45:03;;;;;;;7.72;3.60;;;;;;;19.24;92.00;99473.97;5115208;28;20036;-72
2021/08/17 00:47:31;;;;;;;8.07;3.80;;;;;;;19.31;93.51;99477.69;5114616;28;20043;-72
2021/08/17 00:49:59;;;;;;;8.40;4.03;;;;;;;19.24;92.88;99481.22;5114940;28;20044;-72
2021/08/17 00:52:27;;;;;;;6.85;3.80;;;;;;;19.19;92.91;99476.31;5114882;28;20096;-71
2021/08/17 00:54:55;;;;;;;7.60;3.75;;;;;;;19.20;92.86;99478.00;5115110;28;20116;-71
2021/08/17 00:57:25;;;;;;;5.75;3.20;;;;;;;19.15;92.74;99508.25;5096702;28;20060;-72
2021/08/17 00:59:54;;;;;;;9.23;3.40;;;;;;;18.96;93.92;99540.09;5114628;28;20443;-71
2021/08/17 01:02:22;;;;;;;5.47;2.83;;;;;;;18.84;95.21;99569.28;5114978;28;20036;-71
2021/08/17 01:04:50;;;;;;;7.88;3.67;;;;;;;18.84;94.57;99591.75;5114606;28;20063;-73
2021/08/17 01:07:18;;;;;;;8.38;4.10;;;;;;;19.00;93.02;99595.50;5114874;28;20070;-70
2021/08/17 01:09:47;;;;;;;9.25;3.72;;;;;;;19.02;91.24;99578.16;5114440;28;20407;-73
2021/08/17 01:12:15;;;;;;;6.55;3.80;;;;;;;19.08;91.53;99577.47;5114560;28;20035;-72
2021/08/17 01:14:45;;;;;;;7.55;4.10;;;;;;;19.19;91.02;99599.81;5114184;28;20048;-72
2021/08/17 01:17:14;;;;;;;7.28;3.78;;;;;;;19.09;91.93;99598.09;5114620;28;20057;-72
2021/08/17 01:19:42;;;;;;;9.27;4.45;;;;;;;19.10;92.73;99590.81;5114350;28;20078;-71
2021/08/17 01:22:10;;;;;;;7.78;3.85;;;;;;;19.04;93.23;99591.50;5114412;28;20104;-71
2021/08/17 01:24:39;;;;;;;8.88;4.60;;;;;;;18.93;94.59;99578.28;5114053;28;20044;-71
2021/08/17 01:27:10;;;;;;;7.45;4.25;;;;;;;18.86;94.83;99568.09;5114091;28;20097;-71
2021/08/17 01:29:40;;;;;;;8.93;4.50;;;;;;;18.76;96.20;99567.38;5114230;28;20050;-72
2021/08/17 01:32:12;;;;;;;9.27;4.50;;;;;;;18.78;96.20;99559.94;5113799;28;20395;-72
2021/08/17 01:34:40;;;;;;;9.80;4.88;;;;;;;18.68;96.57;99526.81;5114025;28;20069;-72
2021/08/17 01:37:09;;;;;;;8.90;4.70;;;;;;;18.67;97.33;99549.44;5114088;28;20054;-72
2021/08/17 01:39:37;;;;;;;8.73;4.72;;;;;;;18.67;97.32;99519.72;5113635;28;20073;-72
2021/08/17 01:42:10;;;;;;;9.98;4.63;;;;;;;18.72;96.86;99505.72;5114563;28;20052;-71
2021/08/17 01:44:39;;;;;;;7.20;4.32;;;;;;;18.74;96.83;99495.63;5114344;28;20115;-70
2021/08/17 01:47:09;;;;;;;7.90;4.72;;;;;;;18.83;95.67;99484.69;5114010;28;20040;-70
2021/08/17 01:49:38;;;;;;;10.68;4.88;;;;;;;18.86;94.99;99481.63;5113596;28;20054;-70
2021/08/17 01:52:06;;;;;;;7.60;4.13;;;;;;;18.85;94.65;99474.53;5113888;28;20039;-71
2021/08/17 01:54:34;;;;;;;10.05;4.63;;;;;;;18.91;93.55;99451.41;5113785;28;20469;-72
2021/08/17 01:57:03;;;;;;;8.27;4.15;;;;;;;18.97;93.11;99433.69;5113954;28;20047;-72
2021/08/17 01:59:33;;;;;;;6.57;3.80;;;;;;;18.96;91.86;99437.41;5113839;28;20122;-72
2021/08/17 02:02:01;;;;;;;7.22;4.10;;;;;;;19.01;92.17;99435.91;5113933;28;20388;-72
2021/08/17 02:04:31;;;;;;;7.80;4.20;;;;;;;19.00;92.34;99438.75;5113554;28;20074;-71
2021/08/17 02:06:59;;;;;;;7.32;4.15;;;;;;;19.08;91.60;99433.38;5113647;28;20042;-71
2021/08/17 02:09:27;;;;;;;8.32;4.18;;;;;;;18.98;91.87;99451.59;5095814;28;20389;-71
2021/08/17 02:11:55;;;;;;;10.27;3.90;;;;;;;19.01;92.06;99459.38;5113203;28;20100;-71
2021/08/17 02:14:24;;;;;;;8.70;3.88;;;;;;;19.00;91.27;99449.56;5113562;28;20093;-71
2021/08/17 02:16:54;;;;;;;8.48;3.80;;;;;;;19.03;89.99;99442.00;5113179;28;20051;-73
2021/08/17 02:19:22;;;;;;;7.75;4.03;;;;;;;19.13;88.84;99455.38;5095178;28;20055;-72
2021/08/17 02:21:50;;;;;;;7.68;3.75;;;;;;;19.13;89.12;99449.97;5113107;28;20043;-72
2021/08/17 02:24:21;;;;;;;8.95;4.03;;;;;;;19.13;89.45;99455.38;5113508;28;20043;-72
2021/08/17 02:26:49;;;;;;;7.50;3.80;;;;;;;19.12;88.60;99464.50;5113103;28;20042;-72
2021/08/17 02:29:17;;;;;;;8.32;4.43;;;;;;;19.20;88.12;99456.38;5113429;28;20119;-72
2021/08/17 02:31:46;;;;;;;7.20;3.65;;;;;;;19.19;87.56;99492.53;5112901;28;20043;-73
2021/08/17 02:34:16;;;;;;;8.32;4.18;;;;;;;19.20;87.87;99472.59;5113507;28;20046;-72
2021/08/17 02:36:44;;;;;;;7.30;4.07;;;;;;;19.24;87.82;99473.97;5113357;28;20484;-73
2021/08/17 02:39:12;;;;;;;9.48;3.60;;;;;;;19.26;85.96;99487.31;5113323;28;20052;-72
2021/08/17 02:41:41;;;;;;;6.88;3.90;;;;;;;19.29;86.38;99498.63;5113011;28;20040;-72
2021/08/17 02:44:09;;;;;;;7.35;3.88;;;;;;;19.34;86.32;99503.56;5113029;28;20467;-72
2021/08/17 02:46:37;;;;;;;6.68;3.75;;;;;;;19.31;86.82;99520.97;5116945;28;20519;-73
2021/08/17 02:49:05;;;;;;;8.20;4.07;;;;;;;19.32;86.91;99525.34;5117578;28;20039;-72
2021/08/17 02:51:35;;;;;;;7.95;3.63;;;;;;;19.27;87.69;99541.22;5117460;28;20043;-72
2021/08/17 02:54:03;;;;;;;9.55;4.30;;;;;;;19.28;87.50;99551.00;5117270;28;20050;-73
2021/08/17 02:56:31;;;;;;;6.70;3.30;;;;;;;19.27;86.35;99576.34;5117117;28;20050;-73
2021/08/17 02:58:59;;;;;;;7.10;3.35;;;;;;;19.26;86.45;99601.72;5116816;28;20048;-73
2021/08/17 03:01:30;;;;;;;9.05;3.58;;;;;;;19.16;86.90;99609.09;5117353;28;20044;-71
2021/08/17 03:03:59;;;;;;;7.20;3.50;;;;;;;19.09;87.41;99597.25;5116976;28;20042;-72
2021/08/17 03:06:27;;;;;;;8.02;4.25;;;;;;;18.91;90.46;99586.50;5117059;28;20492;-72
2021/08/17 03:08:56;;;;;;;8.57;3.50;;;;;;;18.77;92.78;99643.88;5116749;28;20039;-72
2021/08/17 03:11:25;;;;;;;8.73;4.50;;;;;;;18.65;94.63;99632.50;5116910;28;20036;-72
2021/08/17 03:13:57;;;;;;;8.10;4.05;;;;;;;18.54;95.09;99638.13;5116802;28;20100;-72
2021/08/17 03:16:25;;;;;;;10.02;5.03;;;;;;;18.53;95.77;99641.84;5116919;28;20050;-72
2021/08/17 03:18:54;;;;;;;8.77;4.70;;;;;;;18.57;94.72;99624.28;5116755;28;20457;-72
2021/08/17 03:21:22;;;;;;;9.88;4.53;;;;;;;18.52;95.64;99635.56;5116764;28;20122;-72
2021/08/17 03:23:51;;;;;;;7.15;4.50;;;;;;;18.55;95.09;99639.81;5116235;28;20408;-71
2021/08/17 03:26:20;;;;;;;8.95;4.50;;;;;;;18.51;94.49;99643.81;5116651;28;20047;-74
2021/08/17 03:28:49;;;;;;;7.35;4.28;;;;;;;18.45;95.15;99658.81;5116399;28;20040;-71
2021/08/17 03:31:17;;;;;;;9.02;4.45;;;;;;;18.38;94.92;99670.38;5098195;28;20048;-72
2021/08/17 03:33:46;;;;;;;8.52;4.90;;;;;;;18.44;95.30;99705.72;5116193;28;20096;-73
2021/08/17 03:36:14;;;;;;;8.52;4.15;;;;;;;18.51;94.58;99727.53;5116447;28;20044;-73
2021/08/17 03:38:45;;;;;;;9.55;5.13;;;;;;;18.60;94.01;99734.69;5116345;28;20109;-71
2021/08/17 03:41:13;;;;;;;8.27;4.47;;;;;;;18.54;93.65;99746.16;5116548;28;20092;-73
2021/08/17 03:43:42;;;;;;;8.75;4.47;;;;;;;18.60;93.40;99726.59;5116061;28;20063;-73
2021/08/17 03:46:10;;;;;;;7.78;4.32;;;;;;;18.63;92.78;99696.59;5116162;28;20044;-72
2021/08/17 03:48:39;;;;;;;8.32;4.10;;;;;;;18.62;91.95;99686.78;5116076;28;20419;-73
2021/08/17 03:51:07;;;;;;;11.88;4.88;;;;;;;18.59;92.19;99665.50;5116410;28;20046;-72
2021/08/17 03:53:36;;;;;;;9.85;4.60;;;;;;;18.64;92.11;99670.44;5116377;28;20100;-73
2021/08/17 03:56:05;;;;;;;8.75;5.05;;;;;;;18.64;92.51;99656.94;5115361;28;20046;-73
2021/08/17 03:58:33;;;;;;;10.55;4.35;;;;;;;18.59;92.69;99635.78;5116194;28;20046;-73
2021/08/17 04:01:03;;;;;;;9.18;4.68;;;;;;;18.66;92.61;99644.97;5115689;28;20211;-71
2021/08/17 04:03:31;;;;;;;9.63;4.32;;;;;;;18.77;91.87;99642.00;5116407;28;20121;-71
2021/08/17 04:06:00;;;;;;;8.68;4.30;;;;;;;18.84;91.37;99624.16;5115788;28;20040;-75
2021/08/17 04:08:28;;;;;;;10.55;4.80;;;;;;;18.94;90.88;99607.00;5115879;28;20051;-74
2021/08/17 04:10:56;;;;;;;7.15;4.18;;;;;;;18.94;90.57;99607.00;5115655;28;20035;-74
2021/08/17 04:13:24;;;;;;;9.77;4.72;;;;;;;19.01;90.05;99619.69;5115738;28;20397;-74
2021/08/17 04:15:52;;;;;;;9.70;4.85;;;;;;;19.03;90.01;99625.78;5115186;28;20039;-75
2021/08/17 04:18:22;;;;;;;9.32;4.03;;;;;;;19.07;89.39;99639.81;5115767;28;20097;-74
2021/08/17 04:20:50;;;;;;;7.93;4.55;;;;;;;19.07;89.30;99666.84;5115353;28;20043;-74
2021/08/17 04:23:19;;;;;;;9.60;4.60;;;;;;;19.05;89.08;99679.66;5115651;28;20035;-74
2021/08/17 04:25:47;;;;;;;7.97;4.45;;;;;;;19.10;89.39;99717.88;5115261;28;20044;-75
2021/08/17 04:28:16;;;;;;;6.95;3.90;;;;;;;19.08;90.71;99749.63;5115263;28;20039;-73
2021/08/17 04:30:44;;;;;;;10.30;4.50;;;;;;;18.91;92.03;99774.81;5115291;28;20039;-75
2021/08/17 04:33:13;;;;;;;8.68;4.32;;;;;;;18.91;92.55;99777.53;5115545;28;20126;-75
2021/08/17 04:35:42;;;;;;;8.18;4.28;;;;;;;18.86;92.45;99751.00;5115550;28;20051;-74
2021/08/17 04:38:10;;;;;;;7.43;4.25;;;;;;;18.91;91.71;99707.28;5115385;28;20059;-75
2021/08/17 04:40:41;;;;;;;9.00;4.50;;;;;;;18.57;97.40;99699.91;5115454;28;20046;-73
2021/08/17 04:43:09;;;;;;;8.15;4.53;;;;;;;18.13;100.00;99685.50;5115267;28;20396;-75
2021/08/17 04:45:37;;;;;;;9.18;4.80;;;;;;;18.03;100.00;99701.78;5115188;28;20659;-74
2021/08/17 04:48:05;;;;;;;8.35;4.93;;;;;;;17.95;100.00;99724.16;5114767;28;20404;-74
2021/08/17 04:50:34;;;;;;;7.45;4.78;;;;;;;17.97;100.00;99761.78;5114842;28;20484;-75
2021/08/17 04:53:04;;;;;;;9.48;5.43;;;;;;;17.98;100.00;99767.00;5114668;28;20050;-75
2021/08/17 04:55:32;;;;;;;8.43;4.82;;;;;;;17.97;100.00;99748.28;5114963;28;20049;-74
2021/08/17 04:58:00;;;;;;;9.05;4.20;;;;;;;17.98;100.00;99733.78;5114473;28;20051;-74
2021/08/17 05:00:31;;;;;;;11.23;5.50;;;;;;;17.95;100.00;99752.94;5114929;28;20480;-73
2021/08/17 05:02:59;;;;;;;7.60;5.35;;;;;;;17.98;100.00;99772.41;5114595;28;20123;-74
2021/08/17 05:05:28;;;;;;;7.22;4.43;;;;;;;18.02;100.00;99795.38;5114596;28;20051;-73
2021/08/17 05:07:56;;;;;;;8.35;4.90;;;;;;;18.00;100.00;99812.72;5113190;28;20404;-73
2021/08/17 05:10:26;;;;;;;8.70;4.53;;;;;;;17.94;100.00;99821.41;5114463;28;20101;-72
2021/08/17 05:12:55;;;;;;;8.50;4.10;;;;;;;17.83;100.00;99811.66;5114259;28;20503;-74
2021/08/17 05:15:23;;;;;;;9.85;5.45;;;;;;;17.78;100.00;99802.34;5114376;28;20043;-71
2021/08/17 05:17:51;;;;;;;8.30;4.88;;;;;;;17.74;100.00;99791.81;5114182;28;20488;-73
2021/08/17 05:20:19;;;;;;;9.80;5.30;;;;;;;17.80;100.00;99794.94;5114287;28;20044;-72
2021/08/17 05:22:48;;;;;;;9.18;5.32;;;;;;;17.84;100.00;99763.97;5114227;28;20031;-73
2021/08/17 05:25:16;;;;;;;10.63;5.05;;;;;;;17.94;100.00;99760.19;5114540;28;20112;-70
2021/08/17 05:27:51;;;;;;;9.43;5.70;;;;;;;18.03;100.00;99744.94;5114183;28;20032;-71
2021/08/17 05:30:20;;;;;;;10.18;4.65;;;;;;;18.07;100.00;99723.94;5114407;28;20487;-71
2021/08/17 05:32:48;;;;;;;10.63;4.63;;;;;;;18.03;100.00;99690.97;5113883;28;20052;-73
2021/08/17 05:35:17;;;;;;;9.63;5.45;;;;;;;18.05;100.00;99656.63;5114451;28;20031;-70
2021/08/17 05:37:45;;;;;;;8.40;4.80;;;;;;;17.93;100.00;99583.13;5114399;28;20048;-70
2021/08/17 05:40:14;;;;;;;9.70;5.90;;;;;;;17.76;100.00;99553.47;5114322;28;20043;-70
2021/08/17 05:42:42;;;;;;;8.80;5.40;;;;;;;17.69;100.00;99644.91;5114348;28;20468;-71
2021/08/17 05:45:12;;;;;;;7.50;5.07;;;;;;;17.80;100.00;99678.94;5113913;28;20043;-71
2021/08/17 05:47:45;;;;;;;7.97;5.03;;;;;;;17.90;100.00;99666.25;5114117;28;20404;-71
2021/08/17 05:50:16;;;;;;;7.07;4.65;;;;;;;17.98;100.00;99680.66;5114142;28;20127;-71
2021/08/17 05:52:44;;;;;;;8.10;5.10;;;;;;;18.06;100.00;99690.69;5113835;28;20050;-70
2021/08/17 05:55:12;;;;;;;8.48;5.03;;;;;;;18.08;100.00;99691.38;5113471;28;20396;-71
2021/08/17 05:57:41;;;;;;;6.15;4.22;;;;;;;18.22;100.00;99706.19;5113628;28;20040;-73
2021/08/17 06:00:13;;;;;;;8.65;4.50;;;;;;;18.20;100.00;99703.63;5113839;28;20055;-72
2021/08/17 06:02:42;;;;;;;7.47;4.60;;;;;;;18.36;100.00;99712.91;5114109;28;20047;-73
2021/08/17 06:05:11;;;;;;;7.07;4.43;;;;;;;18.31;100.00;99721.44;5113381;28;20463;-75
2021/08/17 06:07:45;;;;;;;6.63;3.83;;;;;;;18.29;100.00;99740.50;5113841;28;20047;-70
2021/08/17 06:10:14;;;;;;;8.50;4.97;;;;;;;18.44;100.00;99748.09;5113376;28;20043;-71
2021/08/17 06:12:43;;;;;;;6.95;4.05;;;;;;;18.59;100.00;99765.41;5113867;28;20067;-74
2021/08/17 06:15:15;;;;;;;7.55;4.60;;;;;;;18.55;100.00;99777.56;5113593;28;20412;-74
2021/08/17 06:17:47;;;;;;;8.55;4.72;;;;;;;18.53;100.00;99811.97;5113840;28;20040;-74
2021/08/17 06:20:16;;;;;;;8.52;4.65;;;;;;;18.45;100.00;99828.94;5113412;28;20049;-74
2021/08/17 06:22:45;;;;;;;6.78;3.92;;;;;;;18.36;100.00;99846.06;5113417;28;20493;-74
2021/08/17 06:25:13;;;;;;;6.72;4.35;;;;;;;18.28;100.00;99848.66;5113329;28;20126;-75
2021/08/17 06:27:41;;;;;;;8.13;4.80;;;;;;;18.29;100.00;99848.50;5113659;28;20039;-74
2021/08/17 06:30:10;;;;;;;8.43;4.60;;;;;;;18.40;100.00;99858.22;5095035;28;20044;-71
2021/08/17 06:32:55;;;;;;;9.70;4.45;;;;;;;18.42;100.00;99858.91;5113540;28;20053;-74
2021/08/17 06:35:24;;;;;;;8.68;4.38;;;;;;;18.41;100.00;99853.69;5113331;28;20481;-79
2021/08/17 06:37:52;;;;;;;7.47;4.57;;;;;;;18.31;100.00;99842.94;5113237;28;20063;-75
2021/08/17 06:40:22;;;;;;;8.70;4.13;;;;;;;18.42;100.00;99866.19;5113333;28;20458;-74
2021/08/17 06:42:50;;;;;;;6.95;4.50;;;;;;;18.52;100.00;99866.97;5113170;28;20035;-75
2021/08/17 06:45:19;;;;;;;8.18;4.72;;;;;;;18.45;100.00;99876.69;5113259;28;20143;-74
2021/08/17 06:47:48;;;;;;;7.78;4.80;;;;;;;18.71;100.00;99887.63;5113161;28;20480;-75
2021/08/17 06:50:38;;;;;;;11.18;4.95;;;;;;;18.72;99.56;99894.72;5113264;28;20085;-76
2021/08/17 06:53:06;;;;;;;9.93;4.95;;;;;;;18.79;99.35;99904.75;5113105;28;20039;-74
2021/08/17 06:55:35;;;;;;;8.57;4.78;;;;;;;18.75;100.00;99895.28;5095024;28;20488;-74
2021/08/17 06:58:04;;;;;;;9.05;4.85;;;;;;;18.70;99.99;99904.84;5112997;28;20047;-74
2021/08/17 07:00:33;;;;;;;8.50;4.78;;;;;;;18.66;100.00;99915.09;5112971;28;20074;-74
2021/08/17 07:03:01;;;;;;;10.82;4.50;;;;;;;18.66;100.00;99914.25;5113191;28;20039;-73
2021/08/17 07:05:34;;;;;;;9.38;4.65;;;;;;;18.69;100.00;99916.66;5113201;28;20040;-72
2021/08/17 07:08:05;;;;;;;8.25;4.65;;;;;;;18.73;100.00;99907.25;5112877;28;20046;-76
2021/08/17 07:10:33;;;;;;;8.07;4.53;;;;;;;18.61;98.56;99890.34;5112968;28;20043;-75
2021/08/17 07:13:13;;;;;;;7.47;4.43;;;;;;;18.75;98.42;99889.88;5112987;28;20043;-75
2021/08/17 07:15:42;;;;;;;7.43;4.60;;;;;;;18.85;98.18;99896.06;5113288;28;20078;-74
2021/08/17 07:18:11;;;;;;;6.70;4.18;;;;;;;18.87;99.90;99899.44;5094972;28;20453;-71
2021/08/17 07:20:40;;;;;;;10.70;4.63;;;;;;;18.73;99.89;99905.41;5112989;28;20043;-78
2021/08/17 07:23:10;;;;;;;6.47;3.67;;;;;;;18.73;100.00;99896.44;5112561;28;20071;-78
2021/08/17 07:25:39;;;;;;;8.25;4.70;;;;;;;18.76;99.08;99910.50;5113023;28;20551;-78
2021/08/17 07:28:09;;;;;;;7.55;4.55;;;;;;;18.91;99.17;99920.75;5113069;28;20040;-78
2021/08/17 07:30:38;;;;;;;8.27;4.40;;;;;;;18.92;97.60;99911.66;5095293;28;20055;-78
2021/08/17 07:33:07;;;;;;;8.95;4.43;;;;;;;19.03;97.21;99908.72;5116883;28;20043;-78
2021/08/17 07:35:35;;;;;;;8.25;4.35;;;;;;;18.95;97.24;99916.75;5116603;28;20083;-78
2021/08/17 07:38:04;;;;;;;5.97;3.83;;;;;;;19.08;96.73;99907.25;5115977;28;20131;-78
2021/08/17 07:40:34;;;;;;;8.43;4.35;;;;;;;19.19;96.93;99918.81;5116733;28;20460;-78
2021/08/17 07:43:03;;;;;;;7.88;4.25;;;;;;;19.24;97.46;99920.06;5116285;28;20446;-78
2021/08/17 07:45:31;;;;;;;7.70;4.07;;;;;;;19.15;95.81;99921.00;5116512;28;20050;-78
2021/08/17 07:48:19;;;;;;;6.80;4.15;;;;;;;18.90;97.42;99927.16;5116191;28;20104;-78
2021/08/17 07:50:47;;;;;;;8.02;4.28;;;;;;;18.91;97.70;99936.97;5116538;28;20040;-78
2021/08/17 07:53:16;;;;;;;9.35;3.90;;;;;;;19.00;97.88;99942.31;5116359;28;20040;-78
2021/08/17 07:55:45;;;;;;;6.70;4.38;;;;;;;18.92;97.70;99944.09;5116287;28;20044;-79
2021/08/17 07:58:14;;;;;;;7.38;4.40;;;;;;;19.08;97.03;99952.34;5116091;28;20047;-78
2021/08/17 08:00:42;;;;;;;9.48;4.53;;;;;;;19.12;95.88;99942.94;5116091;28;20450;-78
2021/08/17 08:03:11;;;;;;;9.77;4.43;;;;;;;19.16;93.71;99947.88;5116413;28;20044;-78
2021/08/17 08:05:39;;;;;;;8.13;4.30;;;;;;;19.19;95.19;99964.78;5116213;28;20050;-78
2021/08/17 08:08:07;;;;;;;6.97;4.57;;;;;;;19.05;94.63;99971.59;5115782;28;20047;-78
2021/08/17 08:10:35;;;;;;;6.70;4.20;;;;;;;19.03;94.95;99984.41;5116100;28;20081;-78
2021/08/17 08:13:05;;;;;;;7.53;4.50;;;;;;;19.00;94.79;99969.31;5115547;28;20401;-79
2021/08/17 08:15:33;;;;;;;7.95;3.70;;;;;;;19.03;96.12;99990.66;5115734;28;20127;-78
2021/08/17 08:18:02;;;;;;;8.10;4.35;;;;;;;19.20;95.19;99996.22;5115748;28;20039;-78
2021/08/17 08:20:31;;;;;;;6.35;3.80;;;;;;;19.28;94.74;99993.59;5115872;28;20442;-79
2021/08/17 08:22:59;;;;;;;7.18;4.30;;;;;;;19.45;93.21;99990.91;5115646;28;20094;-78
2021/08/17 08:25:28;;;;;;;7.03;3.58;;;;;;;19.50;93.10;99986.91;5115683;28;20050;-78
2021/08/17 08:27:56;;;;;;;6.95;3.70;;;;;;;19.49;93.33;99988.72;5115455;28;20047;-78
2021/08/17 08:30:26;;;;;;;9.13;3.75;;;;;;;19.42;91.12;99990.38;5115427;28;20082;-78
2021/08/17 08:32:55;;;;;;;5.80;3.80;;;;;;;19.45;92.74;99996.31;5097202;28;20050;-79
2021/08/17 08:35:24;;;;;;;6.40;3.45;;;;;;;19.50;92.23;100005.81;5115419;28;20118;-79
2021/08/17 08:37:53;;;;;;;6.03;3.45;;;;;;;19.78;91.36;100012.84;5115521;28;20052;-78
2021/08/17 08:40:23;;;;;;;5.05;3.00;;;;;;;19.95;88.87;100011.09;5115218;28;20520;-78
2021/08/17 08:42:53;;;;;;;5.82;2.60;;;;;;;19.98;85.55;100025.19;5115491;28;20047;-78
2021/08/17 08:45:23;;;;;;;5.65;2.38;;;;;;;20.05;87.85;100024.53;5115124;28;20100;-78
2021/08/17 08:47:52;;;;;;;5.82;2.83;;;;;;;19.71;89.11;100023.47;5115341;28;20467;-79
2021/08/17 08:50:21;;;;;;;6.72;2.35;;;;;;;19.71;89.00;100022.63;5114917;28;20086;-78
2021/08/17 08:52:49;;;;;;;6.60;2.78;;;;;;;20.11;87.03;100030.19;5115068;28;20431;-78
2021/08/17 08:55:18;;;;;;;3.20;1.90;;;;;;;20.27;80.37;100030.31;5096680;28;20438;-79
2021/08/17 08:57:46;;;;;;;4.20;1.92;;;;;;;20.23;80.82;100023.50;5115288;28;20132;-78
2021/08/17 09:00:15;;;;;;;6.28;1.90;;;;;;;20.15;83.41;100026.13;5114774;28;20065;-78
2021/08/17 09:02:44;;;;;;;5.60;1.88;;;;;;;19.89;81.23;100031.56;5115528;28;20100;-78
2021/08/17 09:05:13;;;;;;;2.60;1.55;;;;;;;19.78;80.20;100039.91;5114604;28;20107;-78
2021/08/17 09:07:43;;;;;;;3.65;1.30;;;;;;;19.84;76.96;100043.84;5114948;28;20553;-78
2021/08/17 09:10:14;;;;;;;2.35;1.10;;;;;;;19.67;76.68;100054.53;5114867;28;20044;-78
2021/08/17 09:12:44;;;;;;;3.63;1.40;;;;;;;19.89;74.14;100068.59;5114844;28;20046;-79
2021/08/17 09:15:15;;;;;;;6.22;1.80;;;;;;;19.86;69.37;100066.19;5114568;28;20409;-78
2021/08/17 09:17:58;;;;;;;5.05;1.55;;;;;;;19.76;69.28;100060.84;5114752;28;20115;-79
2021/08/17 09:20:36;;;;;;;2.83;1.25;;;;;;;19.61;67.08;100084.06;5114398;28;20502;-78
2021/08/17 09:23:22;;;;;;;13.77;2.72;;;;;;;19.49;70.32;100082.53;5114432;28;20040;-78
2021/08/17 09:25:53;;;;;;;4.47;1.50;;;;;;;19.44;69.30;100091.97;5114672;28;20035;-78
2021/08/17 09:28:26;;;;;;;2.55;1.13;;;;;;;19.23;71.04;100088.72;5114267;28;20363;-78
2021/08/17 09:30:54;;;;;;;4.50;1.25;;;;;;;19.22;70.43;100081.59;5114332;28;20040;-78
2021/08/17 09:33:23;;;;;;;2.00;1.02;;;;;;;19.17;69.69;100095.56;5114316;28;20043;-78
2021/08/17 09:35:57;;;;;;;3.15;1.48;;;;;;;19.37;71.08;100096.28;5114291;28;20039;-78
2021/08/17 09:38:31;;;;;;;2.20;1.00;;;;;;;19.39;71.03;100088.03;5095818;28;20565;-78
2021/08/17 09:41:18;;;;;;;4.53;1.75;;;;;;;19.51;72.45;100091.38;5114092;28;20055;-78
2021/08/17 09:43:58;;;;;;;5.63;1.50;;;;;;;19.55;69.31;100084.66;5114200;28;20171;-78
2021/08/17 09:46:28;;;;;;;4.90;1.50;;;;;;;19.52;70.07;100085.81;5113879;28;20055;-79
2021/08/17 09:48:58;;;;;;;4.95;1.48;;;;;;;19.36;68.37;100099.16;5113993;28;20047;-79
2021/08/17 09:51:35;;;;;;;3.60;1.45;;;;;;;19.39;68.41;100097.00;5113629;28;20048;-79
2021/08/17 09:54:11;;;;;;;4.13;1.45;;;;;;;19.43;69.76;100095.69;5113558;28;20039;-79
2021/08/17 09:56:39;;;;;;;3.45;1.50;;;;;;;19.34;69.46;100093.06;5114277;28;20036;-78
2021/08/17 09:59:08;;;;;;;3.97;1.52;;;;;;;19.45;69.61;100099.09;5113811;28;20112;-78
2021/08/17 10:01:36;;;;;;;4.78;1.17;;;;;;;19.28;68.14;100123.41;5113863;28;20043;-78
2021/08/17 10:04:05;;;;;;;2.63;1.20;;;;;;;19.29;69.35;100117.84;5113672;28;20502;-78
2021/08/17 10:06:35;;;;;;;3.65;1.25;;;;;;;19.26;69.43;100115.44;5113840;28;20040;-78
2021/08/17 10:09:03;;;;;;;3.22;1.48;;;;;;;19.24;69.88;100122.00;5113759;28;20118;-78
2021/08/17 10:11:35;;;;;;;2.97;1.15;;;;;;;18.96;68.88;100122.00;5113993;28;20040;-78
2021/08/17 10:14:04;;;;;;;3.80;1.80;;;;;;;18.86;69.72;100135.56;5113548;28;20150;-78
2021/08/17 10:16:33;;;;;;;3.75;1.58;;;;;;;18.96;68.59;100134.66;5113634;28;20039;-78
2021/08/17 10:19:01;;;;;;;3.42;1.27;;;;;;;19.04;67.38;100132.91;5113838;28;20071;-78
2021/08/17 10:21:30;;;;;;;4.57;1.90;;;;;;;19.11;67.80;100138.59;5113431;28;20050;-78
2021/08/17 10:24:00;;;;;;;3.30;1.50;;;;;;;19.03;66.30;100146.59;5113744;28;20043;-78
2021/08/17 10:26:32;;;;;;;2.70;1.40;;;;;;;18.96;65.95;100138.22;5113376;28;20035;-78
2021/08/17 10:29:01;;;;;;;3.40;1.80;;;;;;;19.09;64.84;100151.38;5113556;28;20280;-79
2021/08/17 10:31:32;;;;;;;4.18;1.90;;;;;;;19.14;64.44;100143.69;5113383;28;20074;-78
2021/08/17 10:34:11;;;;;;;3.75;1.65;;;;;;;18.95;64.12;100150.03;5113690;28;20045;-78
2021/08/17 10:36:42;;;;;;;3.42;1.83;;;;;;;18.98;63.67;100147.03;5113368;28;20075;-78
2021/08/17 10:39:32;;;;;;;6.30;1.70;;;;;;;19.03;64.09;100133.06;5113362;28;20052;-78
2021/08/17 10:42:22;;;;;;;3.33;1.33;;;;;;;19.20;64.49;100137.66;5113670;28;20404;-77
2021/08/17 10:44:51;;;;;;;3.92;1.55;;;;;;;19.32;63.82;100114.00;5113601;28;20073;-79
2021/08/17 10:47:32;;;;;;;5.57;1.60;;;;;;;19.65;63.47;100113.34;5113109;28;20400;-77
2021/08/17 10:50:00;;;;;;;3.88;1.70;;;;;;;19.64;59.46;100113.53;5113710;28;20063;-78
2021/08/17 10:52:37;;;;;;;4.32;2.05;;;;;;;19.62;60.14;100124.50;5112998;28;20122;-78
2021/08/17 10:55:34;;;;;;;4.22;1.70;;;;;;;19.55;59.41;100133.34;5113389;28;20099;-78
2021/08/17 10:58:04;;;;;;;4.30;1.58;;;;;;;19.45;59.55;100119.88;5113193;28;20608;-78
2021/08/17 11:00:52;;;;;;;5.13;1.85;;;;;;;19.47;58.24;100125.13;5113214;28;20040;-78
2021/08/17 11:03:48;;;;;;;4.90;1.88;;;;;;;19.49;56.97;100136.66;5113235;28;20074;-78
2021/08/17 11:06:36;;;;;;;3.88;1.75;;;;;;;19.37;57.96;100126.03;5114888;28;20122;-78
2021/08/17 11:09:06;;;;;;;4.22;1.80;;;;;;;19.37;55.79;100144.97;5117609;28;20043;-78
2021/08/17 11:11:36;;;;;;;4.30;1.80;;;;;;;19.29;55.44;100146.72;5117035;28;20088;-78
2021/08/17 11:14:14;;;;;;;5.15;1.90;;;;;;;19.35;53.39;100159.66;5117394;28;20101;-78
2021/08/17 11:16:49;;;;;;;3.67;1.25;;;;;;;19.37;51.73;100163.91;5117262;28;20040;-78
2021/08/17 11:19:19;;;;;;;3.85;1.75;;;;;;;19.22;53.40;100156.47;5117098;28;20036;-78
2021/08/17 11:21:50;;;;;;;4.45;1.80;;;;;;;19.30;54.09;100149.31;5117240;28;20043;-78
2021/08/17 11:24:21;;;;;;;4.93;1.83;;;;;;;19.22;52.79;100151.91;5116681;28;20043;-77
2021/08/17 11:27:00;;;;;;;4.30;1.90;;;;;;;19.25;51.67;100146.19;5116911;28;20537;-77
2021/08/17 11:29:37;;;;;;;7.03;1.75;;;;;;;19.29;52.19;100136.75;5116689;28;20092;-78
2021/08/17 11:32:08;;;;;;;3.70;1.70;;;;;;;19.39;52.46;100144.81;5098970;28;20408;-78
2021/08/17 11:34:37;;;;;;;3.60;1.23;;;;;;;19.32;51.57;100150.00;5116697;28;20400;-78
2021/08/17 11:37:08;;;;;;;4.93;1.73;;;;;;;19.22;52.23;100161.88;5116675;28;20369;-78
2021/08/17 11:39:41;;;;;;;3.25;1.67;;;;;;;19.14;51.61;100163.47;5116747;28;20082;-77
2021/08/17 11:42:14;;;;;;;;;;;;;;;18.95;52.73;100181.63;5117274;28;20044;-77